sensor_id;sensor_type;location;lat;lon;timestamp;P1;durP1;ratioP1;P2;durP2;ratioP2
2646;SDS011;1333;50.958;6.770;2023-04-21T00:01:01;17.07;;;10.47;;
2646;SDS011;1333;50.958;6.770;2023-04-21T00:03:27;12.57;;;8.63;;
2646;SDS011;1333;50.958;6.770;2023-04-21T00:05:56;12.93;;;9.33;;
2646;SDS011;1333;50.958;6.770;2023-04-21T00:08:23;14.67;;;9.93;;
2646;SDS011;1333;50.958;6.770;2023-04-21T00:10:50;14.00;;;10.70;;
2646;SDS011;1333;50.958;6.770;2023-04-21T00:13:15;13.10;;;10.17;;
2646;SDS011;1333;50.958;6.770;2023-04-21T00:15:41;12.80;;;9.63;;
2646;SDS011;1333;50.958;6.770;2023-04-21T00:18:06;10.87;;;9.50;;
2646;SDS011;1333;50.958;6.770;2023-04-21T00:20:33;13.57;;;9.63;;
2646;SDS011;1333;50.958;6.770;2023-04-21T00:22:59;14.57;;;11.10;;
2646;SDS011;1333;50.958;6.770;2023-04-21T00:25:25;13.37;;;10.20;;
2646;SDS011;1333;50.958;6.770;2023-04-21T00:27:51;14.77;;;11.27;;
2646;SDS011;1333;50.958;6.770;2023-04-21T00:30:16;14.40;;;10.13;;
2646;SDS011;1333;50.958;6.770;2023-04-21T00:32:42;17.77;;;11.70;;
2646;SDS011;1333;50.958;6.770;2023-04-21T00:35:08;14.37;;;10.90;;
2646;SDS011;1333;50.958;6.770;2023-04-21T00:37:34;14.80;;;10.80;;
2646;SDS011;1333;50.958;6.770;2023-04-21T00:40:00;16.50;;;12.70;;
2646;SDS011;1333;50.958;6.770;2023-04-21T00:42:26;18.30;;;11.13;;
2646;SDS011;1333;50.958;6.770;2023-04-21T00:44:51;15.70;;;11.20;;
2646;SDS011;1333;50.958;6.770;2023-04-21T00:47:17;15.20;;;11.13;;
2646;SDS011;1333;50.958;6.770;2023-04-21T00:49:43;16.17;;;12.00;;
2646;SDS011;1333;50.958;6.770;2023-04-21T00:52:10;16.90;;;11.47;;
2646;SDS011;1333;50.958;6.770;2023-04-21T00:54:35;14.37;;;10.87;;
2646;SDS011;1333;50.958;6.770;2023-04-21T00:57:01;17.03;;;12.33;;
2646;SDS011;1333;50.958;6.770;2023-04-21T00:59:27;22.60;;;13.27;;
2646;SDS011;1333;50.958;6.770;2023-04-21T01:01:54;17.97;;;11.60;;
2646;SDS011;1333;50.958;6.770;2023-04-21T01:04:19;17.73;;;12.13;;
2646;SDS011;1333;50.958;6.770;2023-04-21T01:06:45;17.17;;;13.20;;
2646;SDS011;1333;50.958;6.770;2023-04-21T01:09:11;19.00;;;13.20;;
2646;SDS011;1333;50.958;6.770;2023-04-21T01:11:37;18.23;;;13.90;;
2646;SDS011;1333;50.958;6.770;2023-04-21T01:14:03;15.80;;;12.50;;
2646;SDS011;1333;50.958;6.770;2023-04-21T01:16:29;19.33;;;12.17;;
2646;SDS011;1333;50.958;6.770;2023-04-21T01:18:57;18.20;;;12.97;;
2646;SDS011;1333;50.958;6.770;2023-04-21T01:21:24;21.93;;;12.67;;
2646;SDS011;1333;50.958;6.770;2023-04-21T01:23:51;19.50;;;12.70;;
2646;SDS011;1333;50.958;6.770;2023-04-21T01:26:17;19.00;;;12.40;;
2646;SDS011;1333;50.958;6.770;2023-04-21T01:28:45;16.83;;;11.77;;
2646;SDS011;1333;50.958;6.770;2023-04-21T01:31:12;17.93;;;13.63;;
2646;SDS011;1333;50.958;6.770;2023-04-21T01:33:42;12.80;;;10.57;;
2646;SDS011;1333;50.958;6.770;2023-04-21T01:36:08;18.10;;;12.57;;
2646;SDS011;1333;50.958;6.770;2023-04-21T01:38:38;19.57;;;12.70;;
2646;SDS011;1333;50.958;6.770;2023-04-21T01:41:04;19.47;;;14.60;;
2646;SDS011;1333;50.958;6.770;2023-04-21T01:43:30;21.33;;;14.07;;
2646;SDS011;1333;50.958;6.770;2023-04-21T01:45:55;16.37;;;13.40;;
2646;SDS011;1333;50.958;6.770;2023-04-21T01:48:21;17.63;;;12.53;;
2646;SDS011;1333;50.958;6.770;2023-04-21T01:50:46;18.90;;;11.93;;
2646;SDS011;1333;50.958;6.770;2023-04-21T01:53:12;15.13;;;12.50;;
2646;SDS011;1333;50.958;6.770;2023-04-21T01:55:37;15.37;;;12.03;;
2646;SDS011;1333;50.958;6.770;2023-04-21T01:58:03;20.03;;;13.87;;
2646;SDS011;1333;50.958;6.770;2023-04-21T02:00:28;19.90;;;12.67;;
2646;SDS011;1333;50.958;6.770;2023-04-21T02:02:54;17.17;;;12.80;;
2646;SDS011;1333;50.958;6.770;2023-04-21T02:05:20;16.40;;;12.90;;
2646;SDS011;1333;50.958;6.770;2023-04-21T02:07:45;16.83;;;12.80;;
2646;SDS011;1333;50.958;6.770;2023-04-21T02:10:11;19.10;;;13.47;;
2646;SDS011;1333;50.958;6.770;2023-04-21T02:12:37;17.87;;;12.53;;
2646;SDS011;1333;50.958;6.770;2023-04-21T02:15:03;16.53;;;12.60;;
2646;SDS011;1333;50.958;6.770;2023-04-21T02:17:29;17.30;;;11.90;;
2646;SDS011;1333;50.958;6.770;2023-04-21T02:19:55;21.70;;;13.10;;
2646;SDS011;1333;50.958;6.770;2023-04-21T02:22:21;14.10;;;11.63;;
2646;SDS011;1333;50.958;6.770;2023-04-21T02:24:47;17.50;;;12.87;;
2646;SDS011;1333;50.958;6.770;2023-04-21T02:27:13;18.63;;;13.67;;
2646;SDS011;1333;50.958;6.770;2023-04-21T02:29:38;15.27;;;10.17;;
2646;SDS011;1333;50.958;6.770;2023-04-21T02:32:04;13.33;;;10.17;;
2646;SDS011;1333;50.958;6.770;2023-04-21T02:34:30;18.80;;;11.67;;
2646;SDS011;1333;50.958;6.770;2023-04-21T02:36:55;16.47;;;11.83;;
2646;SDS011;1333;50.958;6.770;2023-04-21T02:39:21;15.67;;;11.20;;
2646;SDS011;1333;50.958;6.770;2023-04-21T02:41:47;16.93;;;12.33;;
2646;SDS011;1333;50.958;6.770;2023-04-21T02:44:12;19.90;;;15.73;;
2646;SDS011;1333;50.958;6.770;2023-04-21T02:46:41;14.03;;;11.20;;
2646;SDS011;1333;50.958;6.770;2023-04-21T02:49:07;19.10;;;12.07;;
2646;SDS011;1333;50.958;6.770;2023-04-21T02:51:33;19.13;;;11.57;;
2646;SDS011;1333;50.958;6.770;2023-04-21T02:53:59;16.47;;;12.40;;
2646;SDS011;1333;50.958;6.770;2023-04-21T02:56:24;16.83;;;11.23;;
2646;SDS011;1333;50.958;6.770;2023-04-21T02:58:50;19.20;;;11.40;;
2646;SDS011;1333;50.958;6.770;2023-04-21T03:01:15;19.30;;;11.97;;
2646;SDS011;1333;50.958;6.770;2023-04-21T03:03:41;18.30;;;11.87;;
2646;SDS011;1333;50.958;6.770;2023-04-21T03:06:06;16.93;;;11.13;;
2646;SDS011;1333;50.958;6.770;2023-04-21T03:08:32;16.00;;;12.57;;
2646;SDS011;1333;50.958;6.770;2023-04-21T03:10:58;14.50;;;11.50;;
2646;SDS011;1333;50.958;6.770;2023-04-21T03:13:24;16.17;;;11.50;;
2646;SDS011;1333;50.958;6.770;2023-04-21T03:15:50;18.00;;;11.13;;
2646;SDS011;1333;50.958;6.770;2023-04-21T03:18:16;19.90;;;13.20;;
2646;SDS011;1333;50.958;6.770;2023-04-21T03:20:42;14.43;;;11.93;;
2646;SDS011;1333;50.958;6.770;2023-04-21T03:23:08;13.43;;;9.83;;
2646;SDS011;1333;50.958;6.770;2023-04-21T03:25:33;13.27;;;9.03;;
2646;SDS011;1333;50.958;6.770;2023-04-21T03:27:59;12.87;;;9.70;;
2646;SDS011;1333;50.958;6.770;2023-04-21T03:30:25;14.60;;;9.23;;
2646;SDS011;1333;50.958;6.770;2023-04-21T03:32:50;15.70;;;10.43;;
2646;SDS011;1333;50.958;6.770;2023-04-21T03:35:16;12.77;;;9.07;;
2646;SDS011;1333;50.958;6.770;2023-04-21T03:37:42;13.23;;;9.57;;
2646;SDS011;1333;50.958;6.770;2023-04-21T03:40:07;12.30;;;9.67;;
2646;SDS011;1333;50.958;6.770;2023-04-21T03:42:34;13.07;;;9.33;;
2646;SDS011;1333;50.958;6.770;2023-04-21T03:45:03;16.60;;;10.73;;
2646;SDS011;1333;50.958;6.770;2023-04-21T03:47:30;12.67;;;8.47;;
2646;SDS011;1333;50.958;6.770;2023-04-21T03:49:56;14.83;;;10.30;;
2646;SDS011;1333;50.958;6.770;2023-04-21T03:52:21;14.37;;;9.73;;
2646;SDS011;1333;50.958;6.770;2023-04-21T03:54:47;12.50;;;8.83;;
2646;SDS011;1333;50.958;6.770;2023-04-21T03:57:13;11.10;;;8.47;;
2646;SDS011;1333;50.958;6.770;2023-04-21T03:59:38;11.43;;;8.80;;
2646;SDS011;1333;50.958;6.770;2023-04-21T04:02:04;12.80;;;8.70;;
2646;SDS011;1333;50.958;6.770;2023-04-21T04:04:29;14.23;;;10.00;;
2646;SDS011;1333;50.958;6.770;2023-04-21T04:06:55;18.90;;;12.70;;
2646;SDS011;1333;50.958;6.770;2023-04-21T04:09:21;14.30;;;10.10;;
2646;SDS011;1333;50.958;6.770;2023-04-21T04:11:47;20.73;;;11.80;;
2646;SDS011;1333;50.958;6.770;2023-04-21T04:14:12;13.50;;;10.10;;
2646;SDS011;1333;50.958;6.770;2023-04-21T04:16:38;14.80;;;11.73;;
2646;SDS011;1333;50.958;6.770;2023-04-21T04:19:03;16.23;;;9.90;;
2646;SDS011;1333;50.958;6.770;2023-04-21T04:21:29;11.77;;;8.70;;
2646;SDS011;1333;50.958;6.770;2023-04-21T04:23:56;16.07;;;10.73;;
2646;SDS011;1333;50.958;6.770;2023-04-21T04:26:23;17.37;;;10.90;;
2646;SDS011;1333;50.958;6.770;2023-04-21T04:28:49;15.30;;;10.70;;
2646;SDS011;1333;50.958;6.770;2023-04-21T04:31:20;12.90;;;9.37;;
2646;SDS011;1333;50.958;6.770;2023-04-21T04:33:49;14.67;;;10.60;;
2646;SDS011;1333;50.958;6.770;2023-04-21T04:36:15;13.60;;;9.07;;
2646;SDS011;1333;50.958;6.770;2023-04-21T04:38:40;15.90;;;10.33;;
2646;SDS011;1333;50.958;6.770;2023-04-21T04:41:06;14.40;;;12.03;;
2646;SDS011;1333;50.958;6.770;2023-04-21T04:43:32;14.10;;;9.83;;
2646;SDS011;1333;50.958;6.770;2023-04-21T04:46:00;16.80;;;12.03;;
2646;SDS011;1333;50.958;6.770;2023-04-21T04:48:26;15.60;;;11.77;;
2646;SDS011;1333;50.958;6.770;2023-04-21T04:50:52;15.07;;;11.33;;
2646;SDS011;1333;50.958;6.770;2023-04-21T04:53:17;17.30;;;11.80;;
2646;SDS011;1333;50.958;6.770;2023-04-21T04:55:43;17.00;;;11.47;;
2646;SDS011;1333;50.958;6.770;2023-04-21T04:58:08;22.23;;;11.53;;
2646;SDS011;1333;50.958;6.770;2023-04-21T05:00:34;14.77;;;11.33;;
2646;SDS011;1333;50.958;6.770;2023-04-21T05:03:00;19.50;;;10.77;;
2646;SDS011;1333;50.958;6.770;2023-04-21T05:05:26;15.80;;;10.97;;
2646;SDS011;1333;50.958;6.770;2023-04-21T05:07:51;12.23;;;9.50;;
2646;SDS011;1333;50.958;6.770;2023-04-21T05:10:17;15.30;;;10.27;;
2646;SDS011;1333;50.958;6.770;2023-04-21T05:12:43;16.37;;;11.43;;
2646;SDS011;1333;50.958;6.770;2023-04-21T05:15:08;16.00;;;10.83;;
2646;SDS011;1333;50.958;6.770;2023-04-21T05:17:35;18.10;;;10.03;;
2646;SDS011;1333;50.958;6.770;2023-04-21T05:20:00;15.03;;;10.63;;
2646;SDS011;1333;50.958;6.770;2023-04-21T05:22:28;13.37;;;9.83;;
2646;SDS011;1333;50.958;6.770;2023-04-21T05:24:53;11.37;;;9.00;;
2646;SDS011;1333;50.958;6.770;2023-04-21T05:27:19;16.67;;;11.13;;
2646;SDS011;1333;50.958;6.770;2023-04-21T05:29:44;16.63;;;10.87;;
2646;SDS011;1333;50.958;6.770;2023-04-21T05:32:10;17.13;;;12.03;;
2646;SDS011;1333;50.958;6.770;2023-04-21T05:34:36;21.13;;;12.70;;
2646;SDS011;1333;50.958;6.770;2023-04-21T05:37:02;16.97;;;12.27;;
2646;SDS011;1333;50.958;6.770;2023-04-21T05:39:28;16.97;;;12.60;;
2646;SDS011;1333;50.958;6.770;2023-04-21T05:41:54;16.97;;;11.93;;
2646;SDS011;1333;50.958;6.770;2023-04-21T05:44:19;15.43;;;11.97;;
2646;SDS011;1333;50.958;6.770;2023-04-21T05:46:45;14.10;;;11.80;;
2646;SDS011;1333;50.958;6.770;2023-04-21T05:49:11;19.53;;;11.67;;
2646;SDS011;1333;50.958;6.770;2023-04-21T05:51:36;20.90;;;13.97;;
2646;SDS011;1333;50.958;6.770;2023-04-21T05:54:02;17.50;;;12.00;;
2646;SDS011;1333;50.958;6.770;2023-04-21T05:56:27;17.07;;;11.47;;
2646;SDS011;1333;50.958;6.770;2023-04-21T05:58:53;16.97;;;11.40;;
2646;SDS011;1333;50.958;6.770;2023-04-21T06:01:18;18.63;;;12.73;;
2646;SDS011;1333;50.958;6.770;2023-04-21T06:03:44;20.27;;;12.30;;
2646;SDS011;1333;50.958;6.770;2023-04-21T06:06:12;19.63;;;13.83;;
2646;SDS011;1333;50.958;6.770;2023-04-21T06:08:39;14.73;;;11.80;;
2646;SDS011;1333;50.958;6.770;2023-04-21T06:11:04;16.93;;;12.77;;
2646;SDS011;1333;50.958;6.770;2023-04-21T06:13:30;19.87;;;14.07;;
2646;SDS011;1333;50.958;6.770;2023-04-21T06:15:55;20.10;;;14.10;;
2646;SDS011;1333;50.958;6.770;2023-04-21T06:18:21;18.53;;;12.90;;
2646;SDS011;1333;50.958;6.770;2023-04-21T06:20:51;12.47;;;10.70;;
2646;SDS011;1333;50.958;6.770;2023-04-21T06:23:17;16.53;;;12.23;;
2646;SDS011;1333;50.958;6.770;2023-04-21T06:25:43;16.03;;;11.80;;
2646;SDS011;1333;50.958;6.770;2023-04-21T06:28:09;13.37;;;10.70;;
2646;SDS011;1333;50.958;6.770;2023-04-21T06:30:34;12.33;;;11.00;;
2646;SDS011;1333;50.958;6.770;2023-04-21T06:33:00;14.40;;;11.50;;
2646;SDS011;1333;50.958;6.770;2023-04-21T06:35:26;16.70;;;11.87;;
2646;SDS011;1333;50.958;6.770;2023-04-21T06:37:51;14.97;;;10.90;;
2646;SDS011;1333;50.958;6.770;2023-04-21T06:40:17;12.87;;;10.97;;
2646;SDS011;1333;50.958;6.770;2023-04-21T06:42:42;14.77;;;11.40;;
2646;SDS011;1333;50.958;6.770;2023-04-21T06:45:08;17.83;;;11.57;;
2646;SDS011;1333;50.958;6.770;2023-04-21T06:47:34;10.20;;;9.07;;
2646;SDS011;1333;50.958;6.770;2023-04-21T06:49:59;14.70;;;10.70;;
2646;SDS011;1333;50.958;6.770;2023-04-21T06:52:25;15.53;;;12.67;;
2646;SDS011;1333;50.958;6.770;2023-04-21T06:54:50;19.73;;;13.83;;
2646;SDS011;1333;50.958;6.770;2023-04-21T06:57:16;13.97;;;11.27;;
2646;SDS011;1333;50.958;6.770;2023-04-21T06:59:42;17.73;;;13.43;;
2646;SDS011;1333;50.958;6.770;2023-04-21T07:02:07;16.70;;;13.57;;
2646;SDS011;1333;50.958;6.770;2023-04-21T07:04:33;17.50;;;12.83;;
2646;SDS011;1333;50.958;6.770;2023-04-21T07:06:59;16.03;;;13.50;;
2646;SDS011;1333;50.958;6.770;2023-04-21T07:09:24;15.37;;;11.80;;
2646;SDS011;1333;50.958;6.770;2023-04-21T07:11:52;13.37;;;11.40;;
2646;SDS011;1333;50.958;6.770;2023-04-21T07:14:18;12.97;;;11.63;;
2646;SDS011;1333;50.958;6.770;2023-04-21T07:16:44;12.77;;;10.50;;
2646;SDS011;1333;50.958;6.770;2023-04-21T07:19:09;12.30;;;10.83;;
2646;SDS011;1333;50.958;6.770;2023-04-21T07:21:35;12.10;;;10.30;;
2646;SDS011;1333;50.958;6.770;2023-04-21T07:24:01;14.87;;;11.53;;
2646;SDS011;1333;50.958;6.770;2023-04-21T07:26:27;10.30;;;9.27;;
2646;SDS011;1333;50.958;6.770;2023-04-21T07:28:53;11.30;;;10.07;;
2646;SDS011;1333;50.958;6.770;2023-04-21T07:31:22;11.47;;;10.00;;
2646;SDS011;1333;50.958;6.770;2023-04-21T07:33:48;10.67;;;9.57;;
2646;SDS011;1333;50.958;6.770;2023-04-21T07:36:13;13.60;;;12.30;;
2646;SDS011;1333;50.958;6.770;2023-04-21T07:38:39;12.90;;;11.17;;
2646;SDS011;1333;50.958;6.770;2023-04-21T07:41:07;10.90;;;9.80;;
2646;SDS011;1333;50.958;6.770;2023-04-21T07:43:36;14.20;;;12.83;;
2646;SDS011;1333;50.958;6.770;2023-04-21T07:46:02;12.20;;;10.33;;
2646;SDS011;1333;50.958;6.770;2023-04-21T07:48:27;12.73;;;11.43;;
2646;SDS011;1333;50.958;6.770;2023-04-21T07:50:53;13.10;;;11.57;;
2646;SDS011;1333;50.958;6.770;2023-04-21T07:53:18;13.70;;;12.23;;
2646;SDS011;1333;50.958;6.770;2023-04-21T07:55:44;12.97;;;11.50;;
2646;SDS011;1333;50.958;6.770;2023-04-21T07:58:09;11.90;;;10.73;;
2646;SDS011;1333;50.958;6.770;2023-04-21T08:00:35;14.53;;;12.90;;
2646;SDS011;1333;50.958;6.770;2023-04-21T08:03:01;15.30;;;12.77;;
2646;SDS011;1333;50.958;6.770;2023-04-21T08:05:26;16.17;;;13.37;;
2646;SDS011;1333;50.958;6.770;2023-04-21T08:07:53;13.97;;;12.50;;
2646;SDS011;1333;50.958;6.770;2023-04-21T08:10:18;16.60;;;12.40;;
2646;SDS011;1333;50.958;6.770;2023-04-21T08:12:44;12.93;;;11.37;;
2646;SDS011;1333;50.958;6.770;2023-04-21T08:15:09;15.93;;;12.30;;
2646;SDS011;1333;50.958;6.770;2023-04-21T08:17:36;16.23;;;13.17;;
2646;SDS011;1333;50.958;6.770;2023-04-21T08:20:02;14.70;;;11.77;;
2646;SDS011;1333;50.958;6.770;2023-04-21T08:22:29;15.50;;;11.50;;
2646;SDS011;1333;50.958;6.770;2023-04-21T08:24:55;13.47;;;10.87;;
2646;SDS011;1333;50.958;6.770;2023-04-21T08:27:21;13.03;;;9.60;;
2646;SDS011;1333;50.958;6.770;2023-04-21T08:29:47;14.40;;;10.70;;
2646;SDS011;1333;50.958;6.770;2023-04-21T08:32:13;13.27;;;10.63;;
2646;SDS011;1333;50.958;6.770;2023-04-21T08:34:39;9.30;;;8.40;;
2646;SDS011;1333;50.958;6.770;2023-04-21T08:37:05;11.80;;;10.27;;
2646;SDS011;1333;50.958;6.770;2023-04-21T08:39:30;10.60;;;8.30;;
2646;SDS011;1333;50.958;6.770;2023-04-21T08:41:56;9.10;;;8.20;;
2646;SDS011;1333;50.958;6.770;2023-04-21T08:44:23;9.40;;;8.47;;
2646;SDS011;1333;50.958;6.770;2023-04-21T08:46:48;11.03;;;9.93;;
2646;SDS011;1333;50.958;6.770;2023-04-21T08:49:18;12.23;;;11.03;;
2646;SDS011;1333;50.958;6.770;2023-04-21T08:51:45;10.90;;;9.53;;
2646;SDS011;1333;50.958;6.770;2023-04-21T08:54:11;11.70;;;10.30;;
2646;SDS011;1333;50.958;6.770;2023-04-21T08:56:36;9.80;;;8.03;;
2646;SDS011;1333;50.958;6.770;2023-04-21T08:59:03;8.53;;;7.57;;
2646;SDS011;1333;50.958;6.770;2023-04-21T09:01:29;9.37;;;8.50;;
2646;SDS011;1333;50.958;6.770;2023-04-21T09:04:06;10.10;;;9.10;;
2646;SDS011;1333;50.958;6.770;2023-04-21T09:06:40;11.57;;;10.40;;
2646;SDS011;1333;50.958;6.770;2023-04-21T09:09:07;9.23;;;8.43;;
2646;SDS011;1333;50.958;6.770;2023-04-21T09:11:32;9.63;;;8.70;;
2646;SDS011;1333;50.958;6.770;2023-04-21T09:13:58;8.90;;;8.10;;
2646;SDS011;1333;50.958;6.770;2023-04-21T09:16:24;8.90;;;8.13;;
2646;SDS011;1333;50.958;6.770;2023-04-21T09:18:56;11.10;;;10.00;;
2646;SDS011;1333;50.958;6.770;2023-04-21T09:21:28;8.87;;;8.07;;
2646;SDS011;1333;50.958;6.770;2023-04-21T09:23:55;9.40;;;8.10;;
2646;SDS011;1333;50.958;6.770;2023-04-21T09:26:21;8.70;;;7.90;;
2646;SDS011;1333;50.958;6.770;2023-04-21T09:28:47;10.83;;;9.73;;
2646;SDS011;1333;50.958;6.770;2023-04-21T09:31:14;10.80;;;9.80;;
2646;SDS011;1333;50.958;6.770;2023-04-21T09:33:48;11.70;;;10.50;;
2646;SDS011;1333;50.958;6.770;2023-04-21T09:36:19;12.17;;;10.00;;
2646;SDS011;1333;50.958;6.770;2023-04-21T09:38:49;10.07;;;9.17;;
2646;SDS011;1333;50.958;6.770;2023-04-21T09:41:17;11.47;;;10.37;;
2646;SDS011;1333;50.958;6.770;2023-04-21T09:43:43;10.73;;;9.80;;
2646;SDS011;1333;50.958;6.770;2023-04-21T09:46:08;11.10;;;9.90;;
2646;SDS011;1333;50.958;6.770;2023-04-21T09:48:36;9.30;;;8.40;;
2646;SDS011;1333;50.958;6.770;2023-04-21T09:51:06;11.00;;;9.90;;
2646;SDS011;1333;50.958;6.770;2023-04-21T09:53:33;11.40;;;10.17;;
2646;SDS011;1333;50.958;6.770;2023-04-21T09:56:02;9.20;;;8.30;;
2646;SDS011;1333;50.958;6.770;2023-04-21T09:58:31;10.90;;;9.83;;
2646;SDS011;1333;50.958;6.770;2023-04-21T10:01:04;10.23;;;9.17;;
2646;SDS011;1333;50.958;6.770;2023-04-21T10:03:30;9.50;;;8.60;;
2646;SDS011;1333;50.958;6.770;2023-04-21T10:05:56;10.47;;;9.40;;
2646;SDS011;1333;50.958;6.770;2023-04-21T10:08:21;13.53;;;10.57;;
2646;SDS011;1333;50.958;6.770;2023-04-21T10:10:47;11.07;;;9.93;;
2646;SDS011;1333;50.958;6.770;2023-04-21T10:13:13;10.87;;;9.77;;
2646;SDS011;1333;50.958;6.770;2023-04-21T10:15:42;10.10;;;8.60;;
2646;SDS011;1333;50.958;6.770;2023-04-21T10:44:43;10.83;;;8.43;;
2646;SDS011;1333;50.958;6.770;2023-04-21T10:47:10;7.20;;;6.60;;
2646;SDS011;1333;50.958;6.770;2023-04-21T10:49:39;7.63;;;7.00;;
2646;SDS011;1333;50.958;6.770;2023-04-21T10:52:05;9.43;;;8.40;;
2646;SDS011;1333;50.958;6.770;2023-04-21T10:57:10;7.87;;;7.10;;
2646;SDS011;1333;50.958;6.770;2023-04-21T10:59:37;9.10;;;8.20;;
2646;SDS011;1333;50.958;6.770;2023-04-21T11:02:06;10.10;;;9.30;;
2646;SDS011;1333;50.958;6.770;2023-04-21T11:04:34;8.37;;;7.60;;
2646;SDS011;1333;50.958;6.770;2023-04-21T11:09:38;9.30;;;8.50;;
2646;SDS011;1333;50.958;6.770;2023-04-21T11:12:12;9.40;;;8.60;;
2646;SDS011;1333;50.958;6.770;2023-04-21T11:14:45;9.00;;;8.30;;
2646;SDS011;1333;50.958;6.770;2023-04-21T11:17:13;8.03;;;6.97;;
2646;SDS011;1333;50.958;6.770;2023-04-21T11:19:52;7.60;;;7.00;;
2646;SDS011;1333;50.958;6.770;2023-04-21T11:22:19;7.70;;;7.10;;
2646;SDS011;1333;50.958;6.770;2023-04-21T11:24:50;7.10;;;6.60;;
2646;SDS011;1333;50.958;6.770;2023-04-21T11:27:18;7.33;;;6.63;;
2646;SDS011;1333;50.958;6.770;2023-04-21T11:29:47;7.93;;;7.30;;
2646;SDS011;1333;50.958;6.770;2023-04-21T11:32:14;8.23;;;7.63;;
2646;SDS011;1333;50.958;6.770;2023-04-21T11:34:41;6.97;;;6.47;;
2646;SDS011;1333;50.958;6.770;2023-04-21T11:37:08;7.50;;;6.90;;
2646;SDS011;1333;50.958;6.770;2023-04-21T11:39:35;7.93;;;7.20;;
2646;SDS011;1333;50.958;6.770;2023-04-21T11:42:03;6.67;;;6.17;;
2646;SDS011;1333;50.958;6.770;2023-04-21T11:46:56;7.00;;;6.40;;
2646;SDS011;1333;50.958;6.770;2023-04-21T11:49:23;6.50;;;6.00;;
2646;SDS011;1333;50.958;6.770;2023-04-21T11:51:50;7.23;;;6.60;;
2646;SDS011;1333;50.958;6.770;2023-04-21T11:54:16;7.00;;;6.40;;
2646;SDS011;1333;50.958;6.770;2023-04-21T11:56:45;7.00;;;6.50;;
2646;SDS011;1333;50.958;6.770;2023-04-21T11:59:18;8.20;;;7.40;;
2646;SDS011;1333;50.958;6.770;2023-04-21T12:01:51;7.83;;;7.10;;
2646;SDS011;1333;50.958;6.770;2023-04-21T12:06:57;7.20;;;6.50;;
2646;SDS011;1333;50.958;6.770;2023-04-21T12:09:24;7.20;;;6.60;;
2646;SDS011;1333;50.958;6.770;2023-04-21T12:11:52;7.80;;;6.77;;
2646;SDS011;1333;50.958;6.770;2023-04-21T12:14:19;5.63;;;5.23;;
2646;SDS011;1333;50.958;6.770;2023-04-21T12:16:47;5.50;;;5.00;;
2646;SDS011;1333;50.958;6.770;2023-04-21T12:19:59;6.37;;;5.77;;
2646;SDS011;1333;50.958;6.770;2023-04-21T12:22:07;6.87;;;6.27;;
2646;SDS011;1333;50.958;6.770;2023-04-21T12:24:34;5.70;;;5.30;;
2646;SDS011;1333;50.958;6.770;2023-04-21T12:27:01;5.23;;;4.83;;
2646;SDS011;1333;50.958;6.770;2023-04-21T12:29:27;6.17;;;5.67;;
2646;SDS011;1333;50.958;6.770;2023-04-21T12:31:52;5.60;;;5.17;;
2646;SDS011;1333;50.958;6.770;2023-04-21T12:34:18;5.93;;;5.37;;
2646;SDS011;1333;50.958;6.770;2023-04-21T12:36:43;7.60;;;7.00;;
2646;SDS011;1333;50.958;6.770;2023-04-21T12:39:09;7.43;;;6.63;;
2646;SDS011;1333;50.958;6.770;2023-04-21T12:41:35;6.50;;;5.90;;
2646;SDS011;1333;50.958;6.770;2023-04-21T12:44:00;6.97;;;6.27;;
2646;SDS011;1333;50.958;6.770;2023-04-21T12:46:26;6.10;;;5.50;;
2646;SDS011;1333;50.958;6.770;2023-04-21T12:48:52;5.60;;;5.10;;
2646;SDS011;1333;50.958;6.770;2023-04-21T12:51:17;6.63;;;5.83;;
2646;SDS011;1333;50.958;6.770;2023-04-21T12:53:43;7.43;;;6.20;;
2646;SDS011;1333;50.958;6.770;2023-04-21T12:56:09;8.20;;;5.90;;
2646;SDS011;1333;50.958;6.770;2023-04-21T12:58:35;6.97;;;6.37;;
2646;SDS011;1333;50.958;6.770;2023-04-21T13:01:00;5.07;;;4.67;;
2646;SDS011;1333;50.958;6.770;2023-04-21T13:03:26;5.63;;;5.10;;
2646;SDS011;1333;50.958;6.770;2023-04-21T13:05:51;6.77;;;5.20;;
2646;SDS011;1333;50.958;6.770;2023-04-21T13:08:17;5.70;;;5.20;;
2646;SDS011;1333;50.958;6.770;2023-04-21T13:10:43;5.97;;;5.40;;
2646;SDS011;1333;50.958;6.770;2023-04-21T13:13:09;8.93;;;5.87;;
2646;SDS011;1333;50.958;6.770;2023-04-21T13:15:35;9.23;;;6.20;;
2646;SDS011;1333;50.958;6.770;2023-04-21T13:18:00;6.27;;;5.73;;
2646;SDS011;1333;50.958;6.770;2023-04-21T13:20:26;7.03;;;6.40;;
2646;SDS011;1333;50.958;6.770;2023-04-21T13:22:52;5.60;;;5.10;;
2646;SDS011;1333;50.958;6.770;2023-04-21T13:25:17;8.23;;;6.03;;
2646;SDS011;1333;50.958;6.770;2023-04-21T13:27:43;7.90;;;7.10;;
2646;SDS011;1333;50.958;6.770;2023-04-21T13:30:10;6.53;;;5.83;;
2646;SDS011;1333;50.958;6.770;2023-04-21T13:32:37;6.20;;;5.50;;
2646;SDS011;1333;50.958;6.770;2023-04-21T13:35:04;7.07;;;6.37;;
2646;SDS011;1333;50.958;6.770;2023-04-21T13:37:33;9.33;;;5.80;;
2646;SDS011;1333;50.958;6.770;2023-04-21T13:39:59;5.77;;;5.23;;
2646;SDS011;1333;50.958;6.770;2023-04-21T13:42:25;7.17;;;6.47;;
2646;SDS011;1333;50.958;6.770;2023-04-21T13:44:52;6.50;;;5.90;;
2646;SDS011;1333;50.958;6.770;2023-04-21T13:47:17;7.63;;;6.77;;
2646;SDS011;1333;50.958;6.770;2023-04-21T13:49:43;12.03;;;6.60;;
2646;SDS011;1333;50.958;6.770;2023-04-21T13:52:08;8.80;;;6.67;;
2646;SDS011;1333;50.958;6.770;2023-04-21T13:54:34;7.93;;;7.13;;
2646;SDS011;1333;50.958;6.770;2023-04-21T13:56:59;7.57;;;6.87;;
2646;SDS011;1333;50.958;6.770;2023-04-21T13:59:26;6.87;;;6.20;;
2646;SDS011;1333;50.958;6.770;2023-04-21T14:01:52;7.07;;;6.37;;
2646;SDS011;1333;50.958;6.770;2023-04-21T14:04:17;6.67;;;6.07;;
2646;SDS011;1333;50.958;6.770;2023-04-21T14:06:44;7.83;;;7.03;;
2646;SDS011;1333;50.958;6.770;2023-04-21T14:09:10;6.47;;;5.80;;
2646;SDS011;1333;50.958;6.770;2023-04-21T14:11:36;6.70;;;6.10;;
2646;SDS011;1333;50.958;6.770;2023-04-21T14:14:02;7.63;;;6.87;;
2646;SDS011;1333;50.958;6.770;2023-04-21T14:16:27;6.17;;;5.57;;
2646;SDS011;1333;50.958;6.770;2023-04-21T14:18:53;6.67;;;5.77;;
2646;SDS011;1333;50.958;6.770;2023-04-21T14:21:18;5.60;;;4.90;;
2646;SDS011;1333;50.958;6.770;2023-04-21T14:23:44;6.30;;;5.67;;
2646;SDS011;1333;50.958;6.770;2023-04-21T14:26:10;7.47;;;5.83;;
2646;SDS011;1333;50.958;6.770;2023-04-21T14:28:36;6.40;;;5.63;;
2646;SDS011;1333;50.958;6.770;2023-04-21T14:31:01;7.40;;;6.00;;
2646;SDS011;1333;50.958;6.770;2023-04-21T14:33:28;8.87;;;6.70;;
2646;SDS011;1333;50.958;6.770;2023-04-21T14:35:54;5.87;;;5.13;;
2646;SDS011;1333;50.958;6.770;2023-04-21T14:38:20;7.97;;;6.33;;
2646;SDS011;1333;50.958;6.770;2023-04-21T14:40:45;8.03;;;5.40;;
2646;SDS011;1333;50.958;6.770;2023-04-21T14:43:13;7.17;;;5.70;;
2646;SDS011;1333;50.958;6.770;2023-04-21T14:45:39;5.93;;;5.33;;
2646;SDS011;1333;50.958;6.770;2023-04-21T14:48:05;7.00;;;5.77;;
2646;SDS011;1333;50.958;6.770;2023-04-21T14:50:31;5.90;;;5.30;;
2646;SDS011;1333;50.958;6.770;2023-04-21T14:52:56;6.53;;;5.73;;
2646;SDS011;1333;50.958;6.770;2023-04-21T14:55:22;9.27;;;6.30;;
2646;SDS011;1333;50.958;6.770;2023-04-21T14:57:47;7.43;;;6.03;;
2646;SDS011;1333;50.958;6.770;2023-04-21T15:00:15;5.53;;;5.00;;
2646;SDS011;1333;50.958;6.770;2023-04-21T15:02:41;6.80;;;5.60;;
2646;SDS011;1333;50.958;6.770;2023-04-21T15:05:07;8.23;;;4.77;;
2646;SDS011;1333;50.958;6.770;2023-04-21T15:07:33;5.20;;;4.70;;
2646;SDS011;1333;50.958;6.770;2023-04-21T15:09:58;5.63;;;5.07;;
2646;SDS011;1333;50.958;6.770;2023-04-21T15:12:24;4.90;;;4.43;;
2646;SDS011;1333;50.958;6.770;2023-04-21T15:14:50;5.07;;;4.57;;
2646;SDS011;1333;50.958;6.770;2023-04-21T15:17:15;5.90;;;4.77;;
2646;SDS011;1333;50.958;6.770;2023-04-21T15:19:41;6.30;;;5.00;;
2646;SDS011;1333;50.958;6.770;2023-04-21T15:22:06;6.57;;;4.63;;
2646;SDS011;1333;50.958;6.770;2023-04-21T15:24:32;5.53;;;5.03;;
2646;SDS011;1333;50.958;6.770;2023-04-21T15:26:57;7.07;;;5.40;;
2646;SDS011;1333;50.958;6.770;2023-04-21T15:29:23;7.33;;;4.57;;
2646;SDS011;1333;50.958;6.770;2023-04-21T15:31:49;5.03;;;4.50;;